Terminal Aerodrome Forecast
Issued by NWS

Home | Current Version | Previous Version | Text Only | Print | Product List | Glossary On
Versions: 1 2 3 4 5 6 7 8 9 10 11 12 13 14 15 16 17 18 19 20 21 22 23 24 25 26 27 28 29 30 31 32 33 34 35
000
FTUS43 KDDC 261720
TAFHYS
TAF
KHYS 261720Z 2618/2718 33018G27KT P6SM BKN100
     FM270000 01005KT P6SM BKN250
     FM270300 VRB03KT P6SM OVC100
     FM271200 16007KT P6SM BKN250=

USA.gov is the U.S. government's official web portal to all federal, state and local government web resources and services.